Time;durP1;ratioP1;P1;durP2;ratioP2;P2;SDS_P1;SDS_P2;PMS_P1;PMS_P2;Temp;Humidity;BMP_temperature;BMP_pressure;BME280_temperature;BME280_humidity;BME280_pressure;Samples;Min_cycle;Max_cycle;Signal;HPM_P1;HPM_P2
2022/04/12 04:06:30;;;;;;;;;18.25;18.25;;;;;;;;6288391;39;10001351;-57
2022/04/12 04:12:32;;;;;;;;;21.00;17.00;;;;;;;;6492255;46;8991;-58
2022/04/12 04:18:34;;;;;;;;;31.75;28.50;;;;;;;;6492822;39;8852;-57
2022/04/12 04:24:36;;;;;;;;;27.00;25.00;;;;;;;;6493266;39;8941;-56
2022/04/12 04:30:44;;;;;;;;;26.75;25.50;;;;;;;;6491794;47;8849;-57
2022/04/12 04:36:47;;;;;;;;;31.75;26.25;;;;;;;;6492067;39;8838;-59
2022/04/12 04:42:52;;;;;;;;;32.75;27.25;;;;;;;;6492010;31;8843;-56
2022/04/12 04:48:55;;;;;;;;;30.50;29.25;;;;;;;;6493539;39;8865;-59
2022/04/12 04:54:59;;;;;;;;;32.00;25.25;;;;;;;;6494920;31;9519;-55
2022/04/12 05:01:02;;;;;;;;;29.75;26.25;;;;;;;;6494135;31;8869;-55
2022/04/12 05:07:04;;;;;;;;;26.00;25.50;;;;;;;;6493859;31;8947;-54
2022/04/12 05:13:06;;;;;;;;;28.75;28.00;;;;;;;;6492159;31;8981;-56
2022/04/12 05:19:08;;;;;;;;;31.00;28.25;;;;;;;;6492440;39;8860;-56
2022/04/12 05:25:12;;;;;;;;;28.50;26.25;;;;;;;;6492999;46;8913;-54
2022/04/12 05:31:14;;;;;;;;;30.75;26.75;;;;;;;;6492281;31;8929;-57
2022/04/12 05:37:17;;;;;;;;;27.00;25.00;;;;;;;;6492272;39;8858;-56
2022/04/12 05:43:19;;;;;;;;;29.00;28.75;;;;;;;;6491094;31;8929;-56
2022/04/12 05:49:22;;;;;;;;;25.25;24.50;;;;;;;;6489328;39;8914;-55
2022/04/12 05:55:26;;;;;;;;;35.75;33.00;;;;;;;;6489107;46;8960;-57
2022/04/12 06:01:28;;;;;;;;;28.00;27.75;;;;;;;;6488755;46;8909;-53
2022/04/12 06:07:32;;;;;;;;;37.00;29.00;;;;;;;;6490025;31;9178;-56
2022/04/12 06:13:34;;;;;;;;;26.00;24.50;;;;;;;;6488836;31;9015;-53
2022/04/12 06:19:38;;;;;;;;;15.75;15.75;;;;;;;;6489276;31;9533;-53
2022/04/12 06:25:40;;;;;;;;;25.00;25.00;;;;;;;;6489171;39;8933;-54
2022/04/12 06:31:44;;;;;;;;;19.75;17.75;;;;;;;;6487838;39;8961;-54
2022/04/12 06:37:48;;;;;;;;;23.75;23.75;;;;;;;;6487498;39;8882;-54
2022/04/12 06:43:50;;;;;;;;;18.50;15.25;;;;;;;;6487994;31;8955;-54
2022/04/12 06:49:52;;;;;;;;;26.50;23.50;;;;;;;;6488508;31;8932;-56
2022/04/12 06:55:55;;;;;;;;;16.00;15.00;;;;;;;;6488735;46;9031;-56
2022/04/12 07:01:58;;;;;;;;;7.00;6.75;;;;;;;;6487608;39;8987;-51
2022/04/12 07:08:01;;;;;;;;;19.50;17.25;;;;;;;;6488263;31;8970;-52
2022/04/12 07:14:03;;;;;;;;;11.50;11.50;;;;;;;;6488638;31;8942;-53
2022/04/12 07:20:06;;;;;;;;;15.25;12.50;;;;;;;;6487679;31;9008;-52
2022/04/12 07:26:09;;;;;;;;;10.75;10.75;;;;;;;;6488842;39;8975;-53
2022/04/12 07:32:11;;;;;;;;;10.50;9.00;;;;;;;;6487456;39;8963;-56
2022/04/12 07:38:14;;;;;;;;;8.50;8.50;;;;;;;;6486491;39;8921;-56
2022/04/12 07:44:20;;;;;;;;;6.00;3.50;;;;;;;;6487684;31;8899;-53
2022/04/12 07:50:24;;;;;;;;;10.00;8.25;;;;;;;;6485616;31;8910;-53
2022/04/12 07:56:27;;;;;;;;;6.50;6.50;;;;;;;;6485542;39;8930;-54
2022/04/12 08:02:30;;;;;;;;;8.50;6.00;;;;;;;;6485029;46;9568;-51
2022/04/12 08:08:33;;;;;;;;;9.25;9.25;;;;;;;;6483385;31;8965;-53
2022/04/12 08:14:35;;;;;;;;;15.25;13.25;;;;;;;;6484070;47;9074;-55
2022/04/12 08:20:37;;;;;;;;;6.50;6.00;;;;;;;;6485031;46;8930;-53
2022/04/12 08:26:41;;;;;;;;;10.00;7.00;;;;;;;;6485631;39;9463;-56
2022/04/12 08:32:46;;;;;;;;;3.00;3.00;;;;;;;;6485124;46;8983;-52
2022/04/12 08:38:50;;;;;;;;;15.75;14.75;;;;;;;;6486399;31;9037;-51
2022/04/12 08:44:52;;;;;;;;;7.00;7.00;;;;;;;;6487869;46;8958;-53
2022/04/12 08:50:57;;;;;;;;;6.00;6.00;;;;;;;;6487761;31;9037;-53
2022/04/12 08:57:00;;;;;;;;;14.75;12.25;;;;;;;;6488233;39;8907;-54
2022/04/12 09:03:04;;;;;;;;;5.75;5.75;;;;;;;;6481914;31;8953;-55
2022/04/12 09:09:16;;;;;;;;;3.00;3.00;;;;;;;;6489317;31;8989;-52
2022/04/12 09:15:22;;;;;;;;;7.75;6.25;;;;;;;;6489026;46;8905;-52
2022/04/12 09:21:27;;;;;;;;;19.00;11.25;;;;;;;;6487507;46;8914;-54
2022/04/12 09:27:34;;;;;;;;;9.75;7.00;;;;;;;;6487680;31;9173;-52
2022/04/12 09:33:44;;;;;;;;;11.33;10.33;;;;;;;;6488832;39;8942;-55
2022/04/12 09:40:07;;;;;;;;;16.50;16.50;;;;;;;;6490340;31;8972;-55
2022/04/12 09:46:14;;;;;;;;;9.67;9.67;;;;;;;;6489046;39;8882;-52
2022/04/12 09:52:16;;;;;;;;;6.00;4.00;;;;;;;;6488251;39;9615;-52
2022/04/12 09:58:22;;;;;;;;;11.67;11.67;;;;;;;;6488842;46;8945;-55
2022/04/12 10:04:25;;;;;;;;;10.75;10.75;;;;;;;;6489755;39;8967;-52
2022/04/12 10:10:31;;;;;;;;;21.50;19.00;;;;;;;;6488787;31;8914;-56
2022/04/12 10:16:34;;;;;;;;;15.50;13.50;;;;;;;;6489988;39;8961;-53
2022/04/12 10:22:39;;;;;;;;;16.33;15.33;;;;;;;;6488002;39;8914;-55
